Flight Track Log - Related Links

Times and Time Zones

All times are in EST time to prevent confusion due to time zone crossing. See the AAY846 flight status page for this flight to view local times or setup timezone preferences in your user account.

Time Position Orientation Groundspeed Altitude Reporting Facility
EST Latitude Longitude Course Direction KTS MPH feet Rate Location/Type
Mon 10:03:44 27.9333 -82.7000 338° Northwest 167 192 1,100  Level Tampa TRACON
Mon 10:05:30 28.0267 -82.6811 10° North 198 228 4,400 2,277 Climbing Jacksonville Center
Mon 10:06:30 28.1017 -82.6950 351° North 235 270 7,400 2,800 Climbing Jacksonville Center
Mon 10:07:30 28.1831 -82.7067 353° North 265 305 10,000 2,050 Climbing Jacksonville Center
Mon 10:08:30 28.2772 -82.7253 350° North 303 349 11,500 1,900 Climbing Jacksonville Center
Mon 10:09:00 28.5366 -82.9830 338° Northwest  Level Estimated
Mon 10:09:30 28.3814 -82.7558 346° North 351 404 13,800  Level Jacksonville Center
Mon 10:10:30 28.4817 -82.8100 335° Northwest 383 441 16,200 2,250 Climbing Jacksonville Center
Mon 10:11:30 28.5861 -82.8689 334° Northwest 402 463 18,300 1,950 Climbing Jacksonville Center
Mon 10:12:30 28.6736 -82.9114 337° Northwest 413 475 20,100 1,850 Climbing Jacksonville Center
Mon 10:13:30 28.7947 -82.9731 336° Northwest 424 488 22,000 1,700 Climbing Jacksonville Center
Mon 10:14:30 28.9094 -83.0300 337° Northwest 438 504 23,500 1,800 Climbing Jacksonville Center
Mon 10:15:30 29.0408 -83.0897 338° Northwest 449 517 25,600 2,100 Climbing Jacksonville Center
Mon 10:16:30 29.1556 -83.1447 337° Northwest 449 517 27,700 1,850 Climbing Jacksonville Center
Mon 10:17:30 29.2725 -83.1997 338° Northwest 454 522 29,300 1,400 Climbing Jacksonville Center
Mon 10:18:30 29.3869 -83.2572 336° Northwest 454 522 30,500 1,250 Climbing Jacksonville Center
Mon 10:19:30 29.4975 -83.3125 336° Northwest 449 517 31,800 750 Climbing Jacksonville Center
Mon 10:20:30 29.6039 -83.3822 330° Northwest 438 504 32,000 700 Climbing Jacksonville Center
Mon 10:21:30 29.7119 -83.4425 334° Northwest 433 498 33,200 950 Climbing Jacksonville Center
Mon 10:22:30 29.8161 -83.5125 330° Northwest 427 491 33,900 350 Climbing Jacksonville Center
Mon 10:23:30 29.9244 -83.5708 335° Northwest 427 491 33,900  Level Jacksonville Center
Mon 10:24:30 30.0347 -83.6267 336° Northwest 427 491 33,900  Level Jacksonville Center
Mon 10:25:30 30.1408 -83.6828 335° Northwest 422 486 33,900  Level Jacksonville Center
Mon 10:26:30 30.2533 -83.7367 338° Northwest 422 486 33,900  Level Jacksonville Center
Mon 10:27:30 30.3636 -83.7906 337° Northwest 422 486 33,900  Level Jacksonville Center
Mon 10:28:30 30.4758 -83.8447 337° Northwest 422 486 33,900 50 Level Jacksonville Center
Mon 10:29:30 30.5675 -83.8986 333° Northwest 422 486 34,000 50 Climbing Jacksonville Center
Mon 10:30:30 30.6775 -83.9506 338° Northwest 422 486 34,000  Level Jacksonville Center
Mon 10:31:30 30.7900 -84.0075 337° Northwest 422 486 34,000  Level Jacksonville Center
Mon 10:32:30 30.8981 -84.0619 337° Northwest 422 486 34,000  Level Jacksonville Center
Mon 10:33:30 31.0061 -84.1167 337° Northwest 422 486 34,000  Level Jacksonville Center
Mon 10:34:30 31.1183 -84.1739 336° Northwest 422 486 34,000  Level Jacksonville Center
Mon 10:35:30 31.2261 -84.2289 336° Northwest 422 486 34,000  Level Jacksonville Center
Mon 10:36:30 31.3364 -84.2864 336° Northwest 422 486 34,000  Level Jacksonville Center
Mon 10:37:30 31.4464 -84.3417 337° Northwest 422 486 34,000  Level Jacksonville Center
Mon 10:38:30 31.5542 -84.3992 336° Northwest 422 486 34,000  Level Jacksonville Center
Mon 10:40:03 31.7333 -84.4881 337° Northwest 424 488 34,000  Level Atlanta Center
Mon 10:41:03 31.8417 -84.5450 336° Northwest 424 488 34,000  Level Atlanta Center
Mon 10:42:03 31.9519 -84.6019 336° Northwest 424 488 34,000  Level Atlanta Center
Mon 10:43:03 32.0603 -84.6589 336° Northwest 418 481 34,000  Level Atlanta Center
Mon 10:44:03 32.1642 -84.7161 335° Northwest 418 481 34,000  Level Atlanta Center
Mon 10:45:03 32.2747 -84.7683 338° Northwest 418 481 34,000  Level Atlanta Center
Mon 10:46:03 32.3786 -84.8258 335° Northwest 418 481 34,000  Level Atlanta Center
Mon 10:47:03 32.4869 -84.8761 339° North 413 475 34,000  Level Atlanta Center
Mon 10:48:03 32.5950 -84.9339 336° Northwest 424 488 34,000  Level Atlanta Center
Mon 10:49:03 32.7094 -84.9917 337° Northwest 427 491 34,000  Level Atlanta Center
Mon 10:50:03 32.8131 -85.0597 331° Northwest 421 484 34,000  Level Atlanta Center
Mon 10:51:03 32.9233 -85.1128 338° Northwest 437 503 34,000  Level Atlanta Center
Mon 10:52:03 33.0272 -85.1611 339° North 428 493 34,000  Level Atlanta Center
Mon 10:53:03 33.1331 -85.2247 333° Northwest 423 487 34,000  Level Atlanta Center
Mon 10:54:03 33.2389 -85.2831 335° Northwest 417 480 34,000  Level Atlanta Center
Mon 10:55:03 33.3428 -85.3369 337° Northwest 410 472 34,000  Level Atlanta Center
Mon 10:56:03 33.4361 -85.3856 337° Northwest 405 466 34,000  Level Atlanta Center
Mon 10:57:03 33.5419 -85.4419 336° Northwest 405 466 34,000  Level Atlanta Center
Mon 10:58:03 33.6478 -85.5011 335° Northwest 411 473 34,000  Level Atlanta Center
Mon 10:59:03 33.7536 -85.5553 337° Northwest 411 473 34,000  Level Atlanta Center
Mon 11:00:03 33.8553 -85.6122 335° Northwest 411 473 34,000  Level Atlanta Center
Mon 11:01:03 33.9733 -85.6744 336° Northwest 411 473 34,000  Level Atlanta Center
Mon 11:02:03 34.0769 -85.7317 335° Northwest 417 480 34,000  Level Atlanta Center
Mon 11:03:03 34.1806 -85.7864 336° Northwest 417 480 34,000  Level Atlanta Center
Mon 11:04:03 34.2819 -85.8414 336° Northwest 404 465 34,000  Level Atlanta Center
Mon 11:05:03 34.3875 -85.8989 336° Northwest 404 465 34,000  Level Atlanta Center
Mon 11:06:03 34.4931 -85.9567 336° Northwest 404 465 34,000  Level Atlanta Center
Mon 11:07:03 34.5986 -86.0147 336° Northwest 409 471 34,000  Level Atlanta Center
Mon 11:08:03 34.7022 -86.0703 336° Northwest 409 471 34,000  Level Atlanta Center
Mon 11:09:03 34.8053 -86.1333 333° Northwest 409 471 34,000  Level Atlanta Center
Mon 11:10:03 34.9108 -86.1892 337° Northwest 409 471 34,000  Level Atlanta Center
Mon 11:11:03 35.0119 -86.2475 335° Northwest 409 471 34,000  Level Atlanta Center
Mon 11:12:03 35.1175 -86.3036 337° Northwest 409 471 34,000  Level Atlanta Center
Mon 11:14:06 35.3286 -86.4233 335° Northwest 414 476 34,000  Level Memphis Center
Mon 11:15:08 35.4333 -86.4872 334° Northwest 414 476 34,000  Level Memphis Center
Mon 11:16:10 35.5406 -86.5450 336° Northwest 417 480 34,000  Level Memphis Center
Mon 11:17:12 35.6450 -86.6064 334° Northwest 416 479 34,000  Level Memphis Center
Mon 11:18:14 35.7525 -86.6653 336° Northwest 418 481 34,000  Level Memphis Center
Mon 11:19:16 35.8553 -86.7281 334° Northwest 411 473 34,000  Level Memphis Center
Mon 11:20:18 35.9636 -86.7872 336° Northwest 419 482 34,000  Level Memphis Center
Mon 11:21:20 36.0669 -86.8503 334° Northwest 412 474 34,000  Level Memphis Center
Mon 11:22:22 36.1919 -86.9211 335° Northwest 415 478 34,000  Level Memphis Center
Mon 11:23:24 36.3008 -86.9836 335° Northwest 416 479 34,000  Level Memphis Center
Mon 11:24:26 36.4086 -87.0464 335° Northwest 416 479 34,000  Level Memphis Center
Mon 11:25:27 36.5150 -87.1078 335° Northwest 413 475 34,000  Level Memphis Center
Mon 11:26:29 36.6214 -87.1700 335° Northwest 418 481 34,000  Level Memphis Center
Mon 11:27:31 36.7239 -87.2297 335° Northwest 406 467 34,000  Level Memphis Center
Mon 11:28:33 36.8258 -87.2900 335° Northwest 403 464 34,000  Level Memphis Center
Mon 11:29:35 36.9258 -87.3519 334° Northwest 397 457 34,000  Level Memphis Center
Mon 11:30:37 37.0303 -87.4125 335° Northwest 406 467 34,000  Level Memphis Center
Mon 11:31:39 37.1308 -87.4750 334° Northwest 401 461 34,000  Level Memphis Center
Mon 11:32:27 37.2194 -87.5219 337° Northwest 409 471 34,000  Level Indianapolis Center
Mon 11:33:28 37.3200 -87.5847 334° Northwest 401 461 34,000  Level Indianapolis Center
Mon 11:34:30 37.4272 -87.6436 336° Northwest 413 475 34,000  Level Indianapolis Center
Mon 11:35:31 37.5286 -87.7094 333° Northwest 409 471 34,000  Level Indianapolis Center
Mon 11:36:33 37.6344 -87.7717 335° Northwest 412 474 34,000  Level Indianapolis Center
Mon 11:37:34 37.7369 -87.8358 334° Northwest 410 472 34,000  Level Indianapolis Center
Mon 11:38:35 37.8547 -87.9097 334° Northwest 407 468 34,000  Level Indianapolis Center
Mon 11:39:37 37.9589 -87.9711 335° Northwest 410 472 34,000  Level Indianapolis Center
Mon 11:40:38 38.0642 -88.0369 334° Northwest 416 479 34,000  Level Indianapolis Center
Mon 11:41:40 38.1686 -88.0961 336° Northwest 411 473 34,000  Level Indianapolis Center
Mon 11:42:41 38.2733 -88.1644 333° Northwest 417 480 34,000  Level Indianapolis Center
Mon 11:43:12 38.3144 -88.1894 334° Northwest 409 471 34,000  Level Kansas City Center
Mon 11:44:14 38.4431 -88.2644 335° Northwest 413 475 34,000  Level Kansas City Center
Mon 11:45:16 38.5444 -88.3336 332° Northwest 415 478 34,000  Level Kansas City Center
Mon 11:46:18 38.6464 -88.3989 333° Northwest 410 472 34,000  Level Kansas City Center
Mon 11:47:20 38.7503 -88.4658 333° Northwest 412 474 34,000 -244 Level Kansas City Center
Mon 11:48:21 38.8600 -88.5325 335° Northwest 424 488 33,500 -1,122 Descending Kansas City Center
Mon 11:49:23 38.9656 -88.6011 333° Northwest 425 489 31,700 -1,839 Descending Kansas City Center
Mon 11:50:25 39.0642 -88.6647 333° Northwest 427 491 29,700 -2,177 Descending Kansas City Center
Mon 11:51:27 39.1939 -88.7411 335° Northwest 428 493 27,200 -2,274 Descending Kansas City Center
Mon 11:52:29 39.2975 -88.8061 334° Northwest 422 486 25,000 -2,081 Descending Kansas City Center
Mon 11:53:31 39.3944 -88.8664 334° Northwest 400 460 22,900 -1,694 Descending Kansas City Center
Mon 11:54:33 39.4928 -88.9283 334° Northwest 385 443 21,500 -1,452 Descending Kansas City Center
Mon 11:55:35 39.5789 -88.9919 330° Northwest 359 413 19,900 -1,561 Descending Kansas City Center
Mon 11:56:36 39.6692 -89.0386 338° Northwest 353 406 18,300 -1,317 Descending Kansas City Center
Mon 11:57:38 39.7531 -89.0986 331° Northwest 345 397 17,200 -1,355 Descending Kansas City Center
Mon 11:58:40 39.8511 -89.1600 334° Northwest 330 380 15,500 -1,403 Descending Kansas City Center
Mon 11:59:42 39.9308 -89.2133 333° Northwest 324 373 14,300 -1,161 Descending Kansas City Center
Mon 12:00:44 40.0122 -89.2633 335° Northwest 323 372 13,100 -1,210 Descending Kansas City Center
Mon 12:01:46 40.0892 -89.3172 332° Northwest 316 364 11,800 -1,016 Descending Kansas City Center
Mon 12:02:48 40.1678 -89.3558 339° North 307 353 11,000 -968 Descending Kansas City Center
Mon 12:03:50 40.2336 -89.3964 335° Northwest 271 312 9,800 -1,452 Descending Kansas City Center
Mon 12:04:52 40.3111 -89.4344 339° North 253 291 8,000 -1,756 Descending Kansas City Center
Mon 12:05:53 40.3728 -89.4697 336° Northwest 244 281 6,200 -1,659 Descending Kansas City Center
Mon 12:06:55 40.4331 -89.4992 340° North 239 275 4,600 -1,258 Descending Kansas City Center
Mon 12:07:57 40.4811 -89.5278 336° Northwest 213 245 3,600 -871 Descending Kansas City Center
Mon 12:08:59 40.5247 -89.5489 340° North 188 216 2,800 -581 Descending Kansas City Center
Mon 12:10:01 40.5611 -89.5717 335° Northwest 164 189 2,400 -194 Descending Kansas City Center
Mon 12:11:03 40.5994 -89.5894 341° North 152 175 2,400 -290 Level Kansas City Center
Mon 12:12:05 40.6275 -89.6325 311° West 138 159 1,800 -683 Descending Kansas City Center
Mon 12:13:06 40.6494 -89.6708 307° West 132 152 1,000 -537 Descending Kansas City Center
Mon 12:14:08 40.6694 -89.7056 307° West 132 152 700 -121 Descending Kansas City Center
Mon 12:15:35 40.6711 -89.7042 32° Northeast 87 100 700  Level Chicago Center

Login

Don't have an account? Register now (free) for customized features, flight alerts, and more!